createdAt,value
2023-05-05T00:01:20.385Z,17.57
2023-05-05T00:03:48.862Z,18.03
2023-05-05T00:06:17.306Z,19.17
2023-05-05T00:08:46.308Z,18.43
2023-05-05T00:11:14.609Z,18.23
2023-05-05T00:13:44.307Z,18.80
2023-05-05T00:16:12.549Z,18.70
2023-05-05T00:18:40.760Z,19.57
2023-05-05T00:21:09.082Z,19.57
2023-05-05T00:23:37.374Z,18.23
2023-05-05T00:26:05.565Z,18.33
2023-05-05T00:28:33.906Z,18.70
2023-05-05T00:31:03.618Z,18.33
2023-05-05T00:33:31.934Z,18.60
2023-05-05T00:36:00.154Z,19.00
2023-05-05T00:38:28.780Z,19.30
2023-05-05T00:40:57.081Z,19.00
2023-05-05T00:43:25.255Z,19.13
2023-05-05T00:46:01.138Z,18.87
2023-05-05T00:48:31.816Z,19.87
2023-05-05T00:51:01.178Z,19.97
2023-05-05T00:53:30.006Z,19.60
2023-05-05T00:55:58.198Z,19.20
2023-05-05T00:58:27.474Z,19.87
2023-05-05T01:00:56.523Z,19.13
2023-05-05T01:03:25.051Z,19.80
2023-05-05T01:06:05.896Z,20.00
2023-05-05T01:08:48.090Z,20.60
2023-05-05T01:11:26.380Z,20.47
2023-05-05T01:14:02.680Z,21.17
2023-05-05T01:16:34.299Z,21.90
2023-05-05T01:19:15.670Z,21.60
2023-05-05T01:21:50.950Z,21.57
2023-05-05T01:24:46.804Z,21.00
2023-05-05T01:27:40.951Z,21.77
2023-05-05T01:30:21.562Z,21.70
2023-05-05T01:32:55.380Z,23.10
2023-05-05T01:35:30.736Z,21.87
2023-05-05T01:38:04.127Z,22.57
2023-05-05T01:40:38.941Z,21.63
2023-05-05T01:43:08.946Z,21.90
2023-05-05T01:45:41.026Z,22.73
2023-05-05T01:48:12.533Z,21.80
2023-05-05T01:50:42.834Z,22.90
2023-05-05T01:53:12.809Z,19.90
2023-05-05T01:55:42.852Z,21.67
2023-05-05T01:58:12.075Z,21.53
2023-05-05T02:00:41.757Z,21.53
2023-05-05T02:03:13.649Z,22.30
2023-05-05T02:05:43.219Z,22.83
2023-05-05T02:08:12.610Z,24.00
2023-05-05T02:10:41.322Z,25.03
2023-05-05T02:13:12.508Z,24.73
2023-05-05T02:15:41.479Z,26.40
2023-05-05T02:18:12.016Z,27.20
2023-05-05T02:20:42.046Z,26.20
2023-05-05T02:23:10.769Z,26.40
2023-05-05T02:25:43.038Z,26.13
2023-05-05T02:28:19.581Z,28.20
2023-05-05T02:30:56.666Z,28.53
2023-05-05T02:33:27.945Z,28.23
2023-05-05T02:35:57.734Z,29.37
2023-05-05T02:38:29.740Z,31.50
2023-05-05T02:41:00.421Z,31.43
2023-05-05T02:43:31.068Z,32.43
2023-05-05T02:45:59.164Z,34.13
2023-05-05T02:48:29.680Z,33.47
2023-05-05T02:50:58.185Z,34.23
2023-05-05T02:53:28.093Z,35.30
2023-05-05T02:56:02.895Z,35.80
2023-05-05T02:58:35.772Z,37.50
2023-05-05T03:01:12.568Z,41.20
2023-05-05T03:03:48.513Z,41.30
2023-05-05T03:06:20.100Z,41.07
2023-05-05T03:08:54.815Z,44.40
2023-05-05T03:11:28.749Z,45.70
2023-05-05T03:14:05.462Z,44.70
2023-05-05T03:16:35.728Z,45.77
2023-05-05T03:19:06.569Z,45.00
2023-05-05T03:21:35.159Z,46.93
2023-05-05T03:24:13.364Z,44.50
2023-05-05T03:26:41.585Z,47.83
2023-05-05T03:29:09.815Z,46.00
2023-05-05T03:31:38.322Z,47.40
2023-05-05T03:34:08.440Z,45.93
2023-05-05T03:36:36.879Z,43.70
2023-05-05T03:39:05.432Z,42.23
2023-05-05T03:41:33.805Z,44.97
2023-05-05T03:44:02.256Z,44.70
2023-05-05T03:46:30.735Z,45.37
2023-05-05T03:48:58.991Z,44.87
2023-05-05T03:51:31.714Z,45.43
2023-05-05T03:54:00.162Z,44.77
2023-05-05T03:56:28.289Z,43.50
2023-05-05T03:58:56.454Z,45.87
2023-05-05T04:01:24.596Z,43.80
2023-05-05T04:03:52.915Z,45.50
2023-05-05T04:06:21.221Z,48.13
2023-05-05T04:08:50.767Z,47.30
2023-05-05T04:11:19.087Z,49.97
2023-05-05T04:13:48.543Z,51.20
2023-05-05T04:16:16.726Z,52.63
2023-05-05T04:18:45.194Z,52.17
2023-05-05T04:21:13.382Z,48.97
2023-05-05T04:23:41.730Z,54.63
2023-05-05T04:26:11.421Z,54.63
2023-05-05T04:28:39.716Z,54.17
2023-05-05T04:31:07.995Z,52.50
2023-05-05T04:33:36.120Z,52.53
2023-05-05T04:36:04.441Z,54.73
2023-05-05T04:38:32.859Z,56.83
2023-05-05T04:41:01.110Z,58.47
2023-05-05T04:43:30.972Z,57.13
2023-05-05T04:45:59.486Z,57.63
2023-05-05T04:48:27.749Z,56.00
2023-05-05T04:50:55.895Z,58.37
2023-05-05T04:53:24.061Z,60.07
2023-05-05T04:55:53.413Z,60.13
2023-05-05T04:58:21.574Z,59.37
2023-05-05T05:00:51.165Z,63.67
2023-05-05T05:03:19.459Z,62.77
2023-05-05T05:05:47.780Z,63.70
2023-05-05T05:08:17.060Z,63.77
2023-05-05T05:10:45.301Z,65.07
2023-05-05T05:13:13.772Z,62.60
2023-05-05T05:15:42.346Z,60.97
2023-05-05T05:18:12.169Z,59.20
2023-05-05T05:20:40.359Z,63.00
2023-05-05T05:23:08.521Z,68.80
2023-05-05T05:25:36.801Z,69.90
2023-05-05T05:28:09.487Z,68.57
2023-05-05T05:30:38.662Z,67.67
2023-05-05T05:33:07.293Z,66.37
2023-05-05T05:35:37.053Z,66.00
2023-05-05T05:38:05.398Z,67.57
2023-05-05T05:40:33.677Z,64.10
2023-05-05T05:43:02.873Z,61.50
2023-05-05T05:45:31.159Z,61.00
2023-05-05T05:47:59.492Z,57.53
2023-05-05T05:50:28.750Z,55.70
2023-05-05T05:52:58.449Z,53.67
2023-05-05T05:55:26.593Z,53.37
2023-05-05T05:57:55.280Z,53.73
2023-05-05T06:00:23.546Z,55.10
2023-05-05T06:02:52.440Z,51.60
2023-05-05T06:05:20.609Z,43.60
2023-05-05T06:07:48.813Z,41.13
2023-05-05T06:10:26.477Z,37.03
2023-05-05T06:12:56.394Z,32.13
2023-05-05T06:15:25.873Z,31.30
2023-05-05T06:17:54.138Z,28.50
2023-05-05T06:20:22.523Z,27.07
2023-05-05T06:22:50.753Z,25.90
2023-05-05T06:25:20.346Z,23.33
2023-05-05T06:27:48.513Z,22.83
2023-05-05T06:30:16.923Z,22.40
2023-05-05T06:32:45.074Z,21.40
2023-05-05T06:35:13.438Z,21.20
2023-05-05T06:37:41.854Z,20.77
2023-05-05T06:40:11.969Z,20.50
2023-05-05T06:42:41.467Z,21.30
2023-05-05T06:45:10.402Z,20.80
2023-05-05T06:47:39.125Z,20.87
2023-05-05T06:50:09.515Z,20.83
2023-05-05T06:52:37.924Z,20.20
2023-05-05T06:55:06.862Z,20.93
2023-05-05T06:57:35.102Z,19.87
2023-05-05T07:00:09.909Z,19.40
2023-05-05T07:02:38.668Z,20.10
2023-05-05T07:05:07.705Z,19.90
2023-05-05T07:07:36.377Z,20.30
2023-05-05T07:10:04.916Z,20.07
2023-05-05T07:12:33.220Z,19.63
2023-05-05T07:15:07.026Z,19.27
2023-05-05T07:17:45.392Z,20.10
2023-05-05T07:20:13.930Z,19.20
2023-05-05T07:22:42.296Z,19.50
2023-05-05T07:25:10.891Z,19.80
2023-05-05T07:27:39.710Z,19.03
2023-05-05T07:30:13.972Z,20.07
2023-05-05T07:32:45.053Z,19.30
2023-05-05T07:35:13.705Z,19.30
2023-05-05T07:37:42.188Z,19.40
2023-05-05T07:40:11.153Z,18.97
2023-05-05T07:42:39.583Z,18.63
2023-05-05T07:45:08.886Z,19.30
2023-05-05T07:47:37.167Z,20.33
2023-05-05T07:50:08.566Z,19.00
2023-05-05T07:52:46.651Z,18.97
2023-05-05T07:55:18.097Z,18.97
2023-05-05T07:57:46.227Z,19.70
2023-05-05T08:00:15.668Z,18.90
2023-05-05T08:02:44.086Z,20.77
2023-05-05T08:05:14.101Z,19.00
2023-05-05T08:07:42.371Z,19.50
2023-05-05T08:10:12.397Z,19.70
2023-05-05T08:12:41.446Z,18.77
2023-05-05T08:15:10.406Z,19.17
2023-05-05T08:17:47.214Z,18.30
2023-05-05T08:20:17.260Z,18.00
2023-05-05T08:22:45.826Z,18.83
2023-05-05T08:25:14.802Z,19.93
2023-05-05T08:27:44.358Z,18.57
2023-05-05T08:30:13.427Z,18.17
2023-05-05T08:32:41.761Z,19.07
2023-05-05T08:35:10.769Z,18.50
2023-05-05T08:37:40.614Z,19.20
2023-05-05T08:40:12.200Z,19.67
2023-05-05T08:42:40.693Z,18.43
2023-05-05T08:45:11.073Z,19.93
2023-05-05T08:47:40.258Z,19.10
2023-05-05T08:50:11.955Z,18.70
2023-05-05T08:52:44.376Z,18.57
2023-05-05T08:55:19.040Z,18.53
2023-05-05T08:57:52.677Z,17.90
2023-05-05T09:00:21.718Z,19.10
2023-05-05T09:02:50.749Z,19.13
2023-05-05T09:05:19.361Z,19.03
2023-05-05T09:07:49.631Z,18.80
2023-05-05T09:10:18.088Z,18.60
2023-05-05T09:12:46.687Z,19.20
2023-05-05T09:15:16.317Z,18.73
2023-05-05T09:17:44.721Z,18.40
2023-05-05T09:20:15.377Z,18.20
2023-05-05T09:22:46.739Z,17.97
2023-05-05T09:25:18.298Z,18.03
2023-05-05T09:27:48.592Z,18.77
2023-05-05T09:30:19.187Z,19.10
2023-05-05T09:32:49.075Z,18.40
2023-05-05T09:35:18.230Z,17.80
2023-05-05T09:37:46.811Z,19.20
2023-05-05T09:40:20.116Z,17.97
2023-05-05T09:42:48.891Z,17.23
2023-05-05T09:45:28.323Z,17.57
2023-05-05T09:48:00.336Z,17.40
2023-05-05T09:50:46.383Z,17.70
2023-05-05T09:53:14.752Z,17.67
2023-05-05T09:55:54.037Z,18.23
2023-05-05T09:58:26.062Z,17.53
2023-05-05T10:00:55.101Z,17.87
2023-05-05T10:03:23.992Z,17.80
2023-05-05T10:05:55.671Z,18.10
2023-05-05T10:08:26.011Z,18.00
2023-05-05T10:10:57.141Z,18.40
2023-05-05T10:13:26.261Z,18.77
2023-05-05T10:15:55.740Z,17.77
2023-05-05T10:18:25.766Z,17.97
2023-05-05T10:20:59.176Z,18.10
2023-05-05T10:23:33.096Z,17.30
2023-05-05T10:26:06.793Z,16.87
2023-05-05T10:28:38.419Z,16.83
2023-05-05T10:31:24.259Z,17.30
2023-05-05T10:33:55.980Z,17.50
2023-05-05T10:36:25.519Z,17.40
2023-05-05T10:38:57.348Z,17.13
2023-05-05T10:41:27.387Z,17.20
2023-05-05T10:43:57.800Z,17.00
2023-05-05T10:46:27.877Z,16.90
2023-05-05T10:49:03.805Z,17.43
2023-05-05T10:51:42.449Z,17.40
2023-05-05T10:54:18.255Z,18.50
2023-05-05T10:56:48.811Z,19.90
2023-05-05T10:59:44.607Z,20.97
2023-05-05T11:02:23.607Z,20.40
2023-05-05T11:05:14.334Z,22.23
2023-05-05T11:07:43.587Z,23.57
2023-05-05T11:10:13.046Z,26.00
2023-05-05T11:13:20.699Z,27.77
2023-05-05T11:15:49.936Z,32.40
2023-05-05T11:18:36.499Z,31.67
2023-05-05T11:21:16.884Z,35.43
2023-05-05T11:23:46.874Z,34.87
2023-05-05T11:26:16.293Z,36.10
2023-05-05T11:29:02.763Z,31.73
2023-05-05T11:31:32.079Z,34.20
2023-05-05T11:34:28.775Z,38.00
2023-05-05T11:37:03.267Z,44.00
2023-05-05T11:39:42.057Z,46.40
2023-05-05T11:42:25.607Z,51.47
2023-05-05T11:44:56.040Z,53.33
2023-05-05T11:47:31.838Z,58.13
2023-05-05T11:50:00.858Z,60.83
2023-05-05T11:52:28.991Z,63.87
2023-05-05T11:55:02.478Z,67.63
2023-05-05T11:57:31.718Z,74.43
2023-05-05T12:00:03.499Z,77.07
2023-05-05T12:02:31.812Z,77.47
2023-05-05T12:05:01.563Z,78.00
2023-05-05T12:07:31.556Z,77.37
2023-05-05T12:10:00.085Z,76.50
2023-05-05T12:12:39.537Z,75.87
2023-05-05T12:15:10.325Z,70.17
2023-05-05T12:17:40.963Z,65.60
2023-05-05T12:20:11.101Z,68.20
2023-05-05T12:22:39.721Z,66.03
2023-05-05T12:25:08.992Z,68.20
2023-05-05T12:27:37.103Z,67.57
2023-05-05T12:30:19.055Z,69.20
2023-05-05T12:32:47.259Z,71.63
2023-05-05T12:35:16.073Z,75.27
2023-05-05T12:37:45.425Z,75.40
2023-05-05T12:40:47.981Z,75.70
2023-05-05T12:43:26.498Z,76.23
2023-05-05T12:46:07.879Z,77.00
2023-05-05T12:48:39.143Z,77.87
2023-05-05T12:51:16.085Z,79.37
2023-05-05T12:53:45.440Z,77.80
2023-05-05T12:56:33.559Z,73.57
2023-05-05T12:59:02.337Z,71.60
2023-05-05T13:01:32.191Z,76.37
2023-05-05T13:04:08.190Z,75.27
2023-05-05T13:06:37.734Z,83.00
2023-05-05T13:09:06.743Z,68.57
2023-05-05T13:11:38.334Z,67.23
2023-05-05T13:14:07.757Z,65.57
2023-05-05T13:16:37.291Z,65.53
2023-05-05T13:19:05.417Z,65.40
2023-05-05T13:21:33.625Z,58.30
2023-05-05T13:24:19.055Z,56.40
2023-05-05T13:26:49.618Z,57.10
2023-05-05T13:29:18.051Z,58.13
2023-05-05T13:31:47.635Z,60.60
2023-05-05T13:34:15.695Z,61.63
2023-05-05T13:36:43.774Z,59.63
2023-05-05T13:39:12.624Z,60.07
2023-05-05T13:41:40.776Z,61.40
2023-05-05T13:44:08.824Z,60.30
2023-05-05T13:46:36.976Z,63.20
2023-05-05T13:49:06.476Z,61.60
2023-05-05T13:51:35.542Z,63.97
2023-05-05T13:54:03.973Z,62.90
2023-05-05T13:56:32.164Z,62.33
2023-05-05T13:59:00.898Z,59.03
2023-05-05T14:01:29.180Z,56.00
2023-05-05T14:03:57.977Z,51.30
2023-05-05T14:06:27.807Z,45.80
2023-05-05T14:08:55.971Z,47.20
2023-05-05T14:11:24.361Z,45.47
2023-05-05T14:13:52.799Z,37.00
2023-05-05T14:16:20.816Z,34.87
2023-05-05T14:18:48.981Z,37.23
2023-05-05T14:21:17.088Z,33.37
2023-05-05T14:23:46.574Z,33.50
2023-05-05T14:26:14.625Z,35.07
2023-05-05T14:28:43.535Z,37.37
2023-05-05T14:31:12.009Z,37.10
2023-05-05T14:33:40.185Z,38.87
2023-05-05T14:36:08.911Z,39.97
2023-05-05T14:38:37.034Z,39.17
2023-05-05T14:41:06.766Z,34.13
2023-05-05T14:43:35.640Z,37.60
2023-05-05T14:46:06.852Z,38.20
2023-05-05T14:48:35.544Z,32.40
2023-05-05T14:51:04.266Z,31.00
2023-05-05T14:53:32.427Z,26.50
2023-05-05T14:56:01.351Z,24.43
2023-05-05T14:58:31.099Z,27.70
2023-05-05T15:01:00.405Z,26.40
2023-05-05T15:03:28.603Z,26.17
2023-05-05T15:05:56.881Z,27.67
2023-05-05T15:08:25.165Z,29.00
2023-05-05T15:10:53.283Z,28.47
2023-05-05T15:13:21.423Z,30.07
2023-05-05T15:15:51.361Z,30.27
2023-05-05T15:18:20.056Z,28.33
2023-05-05T15:20:48.108Z,24.20
2023-05-05T15:23:16.263Z,21.87
2023-05-05T15:25:44.417Z,20.13
2023-05-05T15:28:12.516Z,20.90
2023-05-05T15:30:40.631Z,21.53
2023-05-05T15:33:10.051Z,20.90
2023-05-05T15:35:38.561Z,19.60
2023-05-05T15:38:06.653Z,19.60
2023-05-05T15:40:34.860Z,20.23
2023-05-05T15:43:02.900Z,20.20
2023-05-05T15:45:31.047Z,20.50
2023-05-05T15:47:59.229Z,19.40
2023-05-05T15:50:28.717Z,19.33
2023-05-05T15:52:57.364Z,19.33
2023-05-05T15:55:25.624Z,22.50
2023-05-05T15:57:53.720Z,22.70
2023-05-05T16:00:22.383Z,21.73
2023-05-05T16:02:50.903Z,22.17
2023-05-05T16:05:20.724Z,22.53
2023-05-05T16:07:53.623Z,22.17
2023-05-05T16:10:21.987Z,22.00
2023-05-05T16:12:51.980Z,22.03
2023-05-05T16:15:20.339Z,22.60
2023-05-05T16:17:48.431Z,22.20
2023-05-05T16:20:16.964Z,22.63
2023-05-05T16:22:45.048Z,24.20
2023-05-05T16:25:17.442Z,21.20
2023-05-05T16:27:45.501Z,22.33
2023-05-05T16:30:15.421Z,22.40
2023-05-05T16:32:43.961Z,21.83
2023-05-05T16:35:12.193Z,21.73
2023-05-05T16:37:40.240Z,21.87
2023-05-05T16:40:09.644Z,21.80
2023-05-05T16:42:39.125Z,21.67
2023-05-05T16:45:08.897Z,21.70
2023-05-05T16:47:37.362Z,20.57
2023-05-05T16:50:06.336Z,20.33
2023-05-05T16:52:34.481Z,20.30
2023-05-05T16:55:04.769Z,20.80
2023-05-05T16:57:33.267Z,21.27
2023-05-05T17:00:02.657Z,21.33
2023-05-05T17:02:30.746Z,21.03
2023-05-05T17:04:58.917Z,19.93
2023-05-05T17:07:27.081Z,20.37
2023-05-05T17:09:55.197Z,21.30
2023-05-05T17:12:23.658Z,20.93
2023-05-05T17:14:52.308Z,21.80
2023-05-05T17:17:21.817Z,22.57
2023-05-05T17:19:49.990Z,22.93
2023-05-05T17:22:18.195Z,23.93
2023-05-05T17:24:46.503Z,23.90
2023-05-05T17:27:14.592Z,23.60
2023-05-05T17:29:43.186Z,23.87
2023-05-05T17:32:11.513Z,23.33
2023-05-05T17:34:41.205Z,24.20
2023-05-05T17:37:10.110Z,24.80
2023-05-05T17:39:38.301Z,25.73
2023-05-05T17:42:06.594Z,24.60
2023-05-05T17:44:34.692Z,24.70
2023-05-05T17:47:03.920Z,25.43
2023-05-05T17:49:32.024Z,24.23
2023-05-05T17:52:01.579Z,26.53
2023-05-05T17:54:29.874Z,27.43
2023-05-05T17:56:59.541Z,26.23
2023-05-05T17:59:27.641Z,28.40
2023-05-05T18:01:55.722Z,29.10
2023-05-05T18:04:23.951Z,31.73
2023-05-05T18:06:52.084Z,31.93
2023-05-05T18:09:21.461Z,33.00
2023-05-05T18:11:52.324Z,30.80
2023-05-05T18:14:21.177Z,32.50
2023-05-05T18:16:50.783Z,32.77
2023-05-05T18:19:20.408Z,32.37
2023-05-05T18:21:48.696Z,34.23
2023-05-05T18:24:20.485Z,34.10
2023-05-05T18:26:51.641Z,32.60
2023-05-05T18:29:20.122Z,30.77
2023-05-05T18:31:51.476Z,28.90
2023-05-05T18:34:20.545Z,30.53
2023-05-05T18:36:49.271Z,32.17
2023-05-05T18:39:17.924Z,31.00
2023-05-05T18:41:46.136Z,32.40
2023-05-05T18:44:15.725Z,32.43
2023-05-05T18:46:44.140Z,32.80
2023-05-05T18:49:12.305Z,34.27
2023-05-05T18:51:40.503Z,33.63
2023-05-05T18:54:08.712Z,33.83
2023-05-05T18:56:36.887Z,35.30
2023-05-05T18:59:05.709Z,37.07
2023-05-05T19:01:35.150Z,38.70
2023-05-05T19:04:03.246Z,39.30
2023-05-05T19:06:32.348Z,40.60
2023-05-05T19:09:00.515Z,42.90
2023-05-05T19:11:28.623Z,41.33
2023-05-05T19:13:56.748Z,42.97
2023-05-05T19:16:24.848Z,42.30
2023-05-05T19:18:58.655Z,43.47
2023-05-05T19:21:28.508Z,43.07
2023-05-05T19:23:56.679Z,40.40
2023-05-05T19:26:26.245Z,40.20
2023-05-05T19:28:54.432Z,38.90
2023-05-05T19:31:27.528Z,40.43
2023-05-05T19:34:01.678Z,44.30
2023-05-05T19:36:30.032Z,44.60
2023-05-05T19:38:58.794Z,48.00
2023-05-05T19:41:27.088Z,51.00
2023-05-05T19:43:55.204Z,52.97
2023-05-05T19:46:25.595Z,56.27
2023-05-05T19:48:53.773Z,59.33
2023-05-05T19:51:23.708Z,63.07
2023-05-05T19:53:51.863Z,65.47
2023-05-05T19:56:19.937Z,68.33
2023-05-05T19:58:56.168Z,71.10
2023-05-05T20:01:24.472Z,74.20
2023-05-05T20:03:54.332Z,77.03
2023-05-05T20:06:24.150Z,79.57
2023-05-05T20:08:52.475Z,81.50
2023-05-05T20:11:21.252Z,86.93
2023-05-05T20:13:50.964Z,88.87
2023-05-05T20:16:19.451Z,90.30
2023-05-05T20:18:47.676Z,92.40
2023-05-05T20:21:16.620Z,92.97
2023-05-05T20:23:46.623Z,98.30
2023-05-05T20:26:15.141Z,96.87
2023-05-05T20:28:45.248Z,95.27
2023-05-05T20:31:16.204Z,94.40
2023-05-05T20:33:44.349Z,94.67
2023-05-05T20:36:12.595Z,92.17
2023-05-05T20:38:40.669Z,99.17
2023-05-05T20:41:10.146Z,97.77
2023-05-05T20:43:38.426Z,97.77
2023-05-05T20:46:07.164Z,100.57
2023-05-05T20:48:35.369Z,99.57
2023-05-05T20:51:04.837Z,101.07
2023-05-05T20:53:33.458Z,102.10
2023-05-05T20:56:01.601Z,98.70
2023-05-05T20:58:31.117Z,99.97
2023-05-05T21:00:59.618Z,98.83
2023-05-05T21:03:27.768Z,96.30
2023-05-05T21:05:55.896Z,100.97
2023-05-05T21:08:23.931Z,98.73
2023-05-05T21:10:52.043Z,101.37
2023-05-05T21:13:20.235Z,103.27
2023-05-05T21:15:52.114Z,102.67
2023-05-05T21:18:20.380Z,99.80
2023-05-05T21:20:48.508Z,98.00
2023-05-05T21:23:16.572Z,99.53
2023-05-05T21:25:44.645Z,102.00
2023-05-05T21:28:12.714Z,99.37
2023-05-05T21:30:40.837Z,107.30
2023-05-05T21:33:10.298Z,102.03
2023-05-05T21:35:38.805Z,106.43
2023-05-05T21:38:06.969Z,114.60
2023-05-05T21:40:35.175Z,114.10
2023-05-05T21:43:03.210Z,113.30
2023-05-05T21:45:31.257Z,112.27
2023-05-05T21:47:59.418Z,109.40
2023-05-05T21:50:29.566Z,110.50
2023-05-05T21:52:57.752Z,107.67
2023-05-05T21:55:25.932Z,108.40
2023-05-05T21:57:53.993Z,113.00
2023-05-05T22:00:22.271Z,110.83
2023-05-05T22:02:50.437Z,107.50
2023-05-05T22:05:18.827Z,111.33
2023-05-05T22:07:48.291Z,114.37
2023-05-05T22:10:16.667Z,113.63
2023-05-05T22:12:44.867Z,114.67
2023-05-05T22:15:13.106Z,111.37
2023-05-05T22:17:41.508Z,109.57
2023-05-05T22:20:10.592Z,112.47
2023-05-05T22:22:38.856Z,114.43
2023-05-05T22:25:09.508Z,116.20
2023-05-05T22:27:37.783Z,113.10
2023-05-05T22:30:06.926Z,112.03
2023-05-05T22:32:35.038Z,115.13
2023-05-05T22:35:03.189Z,114.70
2023-05-05T22:37:31.546Z,117.10
2023-05-05T22:39:59.667Z,117.03
2023-05-05T22:42:30.342Z,116.53
2023-05-05T22:44:58.432Z,117.37
2023-05-05T22:47:26.574Z,116.70
2023-05-05T22:49:54.817Z,119.43
2023-05-05T22:52:22.966Z,114.00
2023-05-05T22:54:51.020Z,121.03
2023-05-05T22:57:19.080Z,122.63
2023-05-05T22:59:48.586Z,119.57
2023-05-05T23:02:16.684Z,119.73
2023-05-05T23:04:45.492Z,120.13
2023-05-05T23:07:13.818Z,117.97
2023-05-05T23:09:41.916Z,119.10
2023-05-05T23:12:10.019Z,122.07
2023-05-05T23:14:38.154Z,120.30
2023-05-05T23:17:07.653Z,116.17
2023-05-05T23:19:36.084Z,118.77
2023-05-05T23:22:04.807Z,122.50
2023-05-05T23:24:32.893Z,126.90
2023-05-05T23:27:03.013Z,124.67
2023-05-05T23:29:31.171Z,122.23
2023-05-05T23:31:59.314Z,121.13
2023-05-05T23:34:28.678Z,121.40
2023-05-05T23:36:57.185Z,122.53
2023-05-05T23:39:25.225Z,126.10
2023-05-05T23:41:53.317Z,126.07
2023-05-05T23:44:21.353Z,131.27
2023-05-05T23:46:49.447Z,127.97
2023-05-05T23:49:17.501Z,127.70
2023-05-05T23:51:46.968Z,126.47
2023-05-05T23:54:15.075Z,128.93
2023-05-05T23:56:43.182Z,129.80
2023-05-05T23:59:11.243Z,126.27
